sensor_id;sensor_type;location;lat;lon;timestamp;P1;durP1;ratioP1;P2;durP2;ratioP2
44446;SDS011;30152;52.066;5.358;2023-06-14T06:33:42;7.07;;;2.85;;
44446;SDS011;30152;52.066;5.358;2023-06-14T06:36:07;10.02;;;2.90;;
44446;SDS011;30152;52.066;5.358;2023-06-14T06:38:33;8.05;;;2.55;;
44446;SDS011;30152;52.066;5.358;2023-06-14T06:40:59;9.50;;;2.50;;
44446;SDS011;30152;52.066;5.358;2023-06-14T06:43:25;11.93;;;2.67;;
44446;SDS011;30152;52.066;5.358;2023-06-14T06:45:51;10.80;;;2.47;;
44446;SDS011;30152;52.066;5.358;2023-06-14T06:48:16;8.60;;;2.60;;
44446;SDS011;30152;52.066;5.358;2023-06-14T06:50:42;7.22;;;2.50;;
44446;SDS011;30152;52.066;5.358;2023-06-14T06:53:07;9.40;;;3.10;;
44446;SDS011;30152;52.066;5.358;2023-06-14T06:55:33;11.50;;;3.08;;
44446;SDS011;30152;52.066;5.358;2023-06-14T06:57:58;5.78;;;2.30;;
44446;SDS011;30152;52.066;5.358;2023-06-14T07:00:25;9.95;;;2.70;;
44446;SDS011;30152;52.066;5.358;2023-06-14T07:02:51;8.75;;;3.00;;
44446;SDS011;30152;52.066;5.358;2023-06-14T07:05:17;10.15;;;2.50;;
44446;SDS011;30152;52.066;5.358;2023-06-14T07:07:43;9.75;;;3.00;;
44446;SDS011;30152;52.066;5.358;2023-06-14T07:10:09;9.77;;;2.88;;
44446;SDS011;30152;52.066;5.358;2023-06-14T07:12:35;5.85;;;2.65;;
44446;SDS011;30152;52.066;5.358;2023-06-14T07:15:04;9.13;;;2.72;;
44446;SDS011;30152;52.066;5.358;2023-06-14T07:17:31;7.57;;;2.80;;
44446;SDS011;30152;52.066;5.358;2023-06-14T07:19:58;9.30;;;2.85;;
44446;SDS011;30152;52.066;5.358;2023-06-14T07:22:24;10.13;;;3.38;;
44446;SDS011;30152;52.066;5.358;2023-06-14T07:24:49;5.47;;;2.47;;
44446;SDS011;30152;52.066;5.358;2023-06-14T07:27:16;10.10;;;2.95;;
44446;SDS011;30152;52.066;5.358;2023-06-14T07:29:41;8.32;;;2.50;;
44446;SDS011;30152;52.066;5.358;2023-06-14T07:32:07;8.63;;;2.22;;
44446;SDS011;30152;52.066;5.358;2023-06-14T07:34:33;6.20;;;1.92;;
44446;SDS011;30152;52.066;5.358;2023-06-14T07:36:59;7.65;;;2.42;;
44446;SDS011;30152;52.066;5.358;2023-06-14T07:39:25;12.35;;;2.90;;
44446;SDS011;30152;52.066;5.358;2023-06-14T07:41:51;9.35;;;3.15;;
44446;SDS011;30152;52.066;5.358;2023-06-14T07:44:17;6.07;;;1.92;;
44446;SDS011;30152;52.066;5.358;2023-06-14T07:46:43;4.53;;;2.13;;
44446;SDS011;30152;52.066;5.358;2023-06-14T07:49:11;6.68;;;2.22;;
44446;SDS011;30152;52.066;5.358;2023-06-14T07:51:36;8.82;;;2.00;;
44446;SDS011;30152;52.066;5.358;2023-06-14T07:54:03;7.30;;;2.10;;
44446;SDS011;30152;52.066;5.358;2023-06-14T07:56:29;6.00;;;2.50;;
44446;SDS011;30152;52.066;5.358;2023-06-14T07:58:55;6.85;;;2.20;;
44446;SDS011;30152;52.066;5.358;2023-06-14T08:01:21;5.40;;;1.95;;
44446;SDS011;30152;52.066;5.358;2023-06-14T08:03:50;6.30;;;2.05;;
44446;SDS011;30152;52.066;5.358;2023-06-14T08:06:16;5.70;;;1.85;;
44446;SDS011;30152;52.066;5.358;2023-06-14T08:08:42;5.03;;;2.13;;
44446;SDS011;30152;52.066;5.358;2023-06-14T08:11:08;8.05;;;1.80;;
44446;SDS011;30152;52.066;5.358;2023-06-14T08:13:34;4.63;;;1.77;;
44446;SDS011;30152;52.066;5.358;2023-06-14T08:16:00;6.70;;;1.73;;
44446;SDS011;30152;52.066;5.358;2023-06-14T08:18:26;6.45;;;2.42;;
44446;SDS011;30152;52.066;5.358;2023-06-14T08:20:52;7.03;;;1.95;;
44446;SDS011;30152;52.066;5.358;2023-06-14T08:23:20;8.18;;;1.70;;
44446;SDS011;30152;52.066;5.358;2023-06-14T08:25:46;6.13;;;1.85;;
44446;SDS011;30152;52.066;5.358;2023-06-14T08:28:12;5.15;;;1.60;;
44446;SDS011;30152;52.066;5.358;2023-06-14T08:30:39;9.23;;;1.60;;
44446;SDS011;30152;52.066;5.358;2023-06-14T08:33:05;6.43;;;1.70;;
44446;SDS011;30152;52.066;5.358;2023-06-14T08:35:32;5.78;;;1.40;;
44446;SDS011;30152;52.066;5.358;2023-06-14T08:37:58;5.72;;;1.63;;
44446;SDS011;30152;52.066;5.358;2023-06-14T08:40:24;5.40;;;1.70;;
44446;SDS011;30152;52.066;5.358;2023-06-14T08:42:51;4.28;;;1.70;;
44446;SDS011;30152;52.066;5.358;2023-06-14T08:45:18;7.13;;;1.55;;
44446;SDS011;30152;52.066;5.358;2023-06-14T08:47:44;4.88;;;1.73;;
44446;SDS011;30152;52.066;5.358;2023-06-14T08:50:12;4.75;;;1.23;;
44446;SDS011;30152;52.066;5.358;2023-06-14T08:52:41;5.75;;;1.67;;
44446;SDS011;30152;52.066;5.358;2023-06-14T08:55:15;5.28;;;1.75;;
44446;SDS011;30152;52.066;5.358;2023-06-14T08:57:42;3.95;;;1.50;;
44446;SDS011;30152;52.066;5.358;2023-06-14T09:00:09;5.35;;;1.60;;
44446;SDS011;30152;52.066;5.358;2023-06-14T09:02:38;4.90;;;1.50;;
44446;SDS011;30152;52.066;5.358;2023-06-14T09:05:08;7.05;;;1.65;;
44446;SDS011;30152;52.066;5.358;2023-06-14T09:07:34;3.85;;;1.23;;
44446;SDS011;30152;52.066;5.358;2023-06-14T09:10:14;5.35;;;1.40;;
44446;SDS011;30152;52.066;5.358;2023-06-14T09:12:41;4.40;;;1.55;;
44446;SDS011;30152;52.066;5.358;2023-06-14T09:15:08;4.88;;;1.17;;
44446;SDS011;30152;52.066;5.358;2023-06-14T09:17:37;4.75;;;1.20;;
44446;SDS011;30152;52.066;5.358;2023-06-14T09:20:05;5.05;;;1.33;;
44446;SDS011;30152;52.066;5.358;2023-06-14T09:22:34;4.22;;;1.25;;
44446;SDS011;30152;52.066;5.358;2023-06-14T09:25:00;4.93;;;1.48;;
44446;SDS011;30152;52.066;5.358;2023-06-14T09:27:27;7.45;;;1.38;;
44446;SDS011;30152;52.066;5.358;2023-06-14T09:29:53;4.90;;;1.50;;
44446;SDS011;30152;52.066;5.358;2023-06-14T09:32:22;5.78;;;1.48;;
44446;SDS011;30152;52.066;5.358;2023-06-14T09:34:48;5.03;;;1.27;;
44446;SDS011;30152;52.066;5.358;2023-06-14T09:37:26;5.07;;;1.55;;
44446;SDS011;30152;52.066;5.358;2023-06-14T09:39:52;4.00;;;1.40;;
44446;SDS011;30152;52.066;5.358;2023-06-14T09:42:18;4.97;;;1.48;;
44446;SDS011;30152;52.066;5.358;2023-06-14T09:44:49;5.00;;;1.30;;
44446;SDS011;30152;52.066;5.358;2023-06-14T09:47:15;4.70;;;1.40;;
44446;SDS011;30152;52.066;5.358;2023-06-14T09:49:43;5.85;;;1.25;;
44446;SDS011;30152;52.066;5.358;2023-06-14T09:52:10;3.28;;;1.00;;
44446;SDS011;30152;52.066;5.358;2023-06-14T09:54:41;4.03;;;1.40;;
44446;SDS011;30152;52.066;5.358;2023-06-14T09:57:08;3.33;;;1.20;;
44446;SDS011;30152;52.066;5.358;2023-06-14T09:59:36;6.50;;;1.50;;
44446;SDS011;30152;52.066;5.358;2023-06-14T10:02:07;4.80;;;1.35;;
44446;SDS011;30152;52.066;5.358;2023-06-14T10:04:35;4.57;;;1.40;;
44446;SDS011;30152;52.066;5.358;2023-06-14T10:07:01;4.43;;;1.30;;
44446;SDS011;30152;52.066;5.358;2023-06-14T10:09:28;3.17;;;1.08;;
44446;SDS011;30152;52.066;5.358;2023-06-14T10:11:55;4.28;;;1.38;;
44446;SDS011;30152;52.066;5.358;2023-06-14T10:14:21;4.25;;;1.27;;
44446;SDS011;30152;52.066;5.358;2023-06-14T10:17:00;6.22;;;1.42;;
44446;SDS011;30152;52.066;5.358;2023-06-14T10:22:34;7.32;;;1.17;;
44446;SDS011;30152;52.066;5.358;2023-06-14T10:25:01;7.32;;;1.20;;
44446;SDS011;30152;52.066;5.358;2023-06-14T10:27:28;6.38;;;1.50;;
44446;SDS011;30152;52.066;5.358;2023-06-14T10:32:22;4.75;;;1.30;;
44446;SDS011;30152;52.066;5.358;2023-06-14T10:34:58;3.83;;;1.13;;
44446;SDS011;30152;52.066;5.358;2023-06-14T10:37:24;5.57;;;1.35;;
44446;SDS011;30152;52.066;5.358;2023-06-14T10:39:50;4.78;;;1.33;;
44446;SDS011;30152;52.066;5.358;2023-06-14T10:42:18;6.22;;;1.63;;
44446;SDS011;30152;52.066;5.358;2023-06-14T10:44:57;4.38;;;1.40;;
44446;SDS011;30152;52.066;5.358;2023-06-14T10:47:35;5.10;;;1.20;;
44446;SDS011;30152;52.066;5.358;2023-06-14T10:50:04;5.45;;;1.20;;
44446;SDS011;30152;52.066;5.358;2023-06-14T10:52:32;3.97;;;1.17;;
44446;SDS011;30152;52.066;5.358;2023-06-14T10:55:16;4.05;;;1.15;;
44446;SDS011;30152;52.066;5.358;2023-06-14T10:57:52;5.45;;;1.52;;
44446;SDS011;30152;52.066;5.358;2023-06-14T11:00:23;7.35;;;1.92;;
44446;SDS011;30152;52.066;5.358;2023-06-14T11:05:45;4.95;;;1.30;;
44446;SDS011;30152;52.066;5.358;2023-06-14T11:10:49;4.82;;;1.55;;
44446;SDS011;30152;52.066;5.358;2023-06-14T11:13:16;5.78;;;1.50;;
44446;SDS011;30152;52.066;5.358;2023-06-14T11:15:45;5.50;;;1.48;;
44446;SDS011;30152;52.066;5.358;2023-06-14T11:18:12;7.88;;;1.50;;
44446;SDS011;30152;52.066;5.358;2023-06-14T11:20:39;6.55;;;1.90;;
44446;SDS011;30152;52.066;5.358;2023-06-14T11:23:05;5.32;;;1.30;;
44446;SDS011;30152;52.066;5.358;2023-06-14T11:25:31;7.40;;;1.27;;
44446;SDS011;30152;52.066;5.358;2023-06-14T11:27:57;4.03;;;1.20;;
44446;SDS011;30152;52.066;5.358;2023-06-14T11:30:24;7.50;;;1.30;;
44446;SDS011;30152;52.066;5.358;2023-06-14T11:32:53;6.72;;;1.50;;
44446;SDS011;30152;52.066;5.358;2023-06-14T11:35:21;5.82;;;1.15;;
44446;SDS011;30152;52.066;5.358;2023-06-14T11:37:54;5.05;;;1.20;;
44446;SDS011;30152;52.066;5.358;2023-06-14T11:40:22;5.95;;;1.55;;
44446;SDS011;30152;52.066;5.358;2023-06-14T11:42:49;4.97;;;1.52;;
44446;SDS011;30152;52.066;5.358;2023-06-14T11:45:15;3.38;;;1.23;;
44446;SDS011;30152;52.066;5.358;2023-06-14T11:47:41;4.43;;;1.60;;
44446;SDS011;30152;52.066;5.358;2023-06-14T11:50:08;6.32;;;1.40;;
44446;SDS011;30152;52.066;5.358;2023-06-14T11:52:34;4.57;;;1.50;;
44446;SDS011;30152;52.066;5.358;2023-06-14T11:55:02;5.70;;;1.45;;
44446;SDS011;30152;52.066;5.358;2023-06-14T11:57:33;3.75;;;1.20;;
44446;SDS011;30152;52.066;5.358;2023-06-14T12:00:02;3.90;;;1.30;;
44446;SDS011;30152;52.066;5.358;2023-06-14T12:02:31;7.18;;;1.60;;
44446;SDS011;30152;52.066;5.358;2023-06-14T12:05:03;6.32;;;1.50;;
44446;SDS011;30152;52.066;5.358;2023-06-14T12:07:36;6.67;;;1.93;;
44446;SDS011;30152;52.066;5.358;2023-06-14T12:10:05;6.25;;;1.23;;
44446;SDS011;30152;52.066;5.358;2023-06-14T12:12:36;7.00;;;1.88;;
44446;SDS011;30152;52.066;5.358;2023-06-14T12:15:06;3.58;;;1.20;;
44446;SDS011;30152;52.066;5.358;2023-06-14T12:17:33;9.10;;;1.27;;
44446;SDS011;30152;52.066;5.358;2023-06-14T12:20:04;4.10;;;1.20;;
44446;SDS011;30152;52.066;5.358;2023-06-14T12:22:33;3.75;;;1.45;;
44446;SDS011;30152;52.066;5.358;2023-06-14T12:24:59;4.45;;;1.02;;
44446;SDS011;30152;52.066;5.358;2023-06-14T12:27:25;5.10;;;1.10;;
44446;SDS011;30152;52.066;5.358;2023-06-14T12:30:00;6.25;;;1.45;;
44446;SDS011;30152;52.066;5.358;2023-06-14T12:32:26;3.72;;;1.40;;
44446;SDS011;30152;52.066;5.358;2023-06-14T12:34:52;4.00;;;1.30;;
44446;SDS011;30152;52.066;5.358;2023-06-14T12:37:18;9.10;;;1.65;;
44446;SDS011;30152;52.066;5.358;2023-06-14T12:39:44;3.15;;;1.13;;
44446;SDS011;30152;52.066;5.358;2023-06-14T12:42:10;2.55;;;0.95;;
44446;SDS011;30152;52.066;5.358;2023-06-14T12:44:39;3.92;;;1.20;;
44446;SDS011;30152;52.066;5.358;2023-06-14T12:47:06;6.38;;;1.20;;
44446;SDS011;30152;52.066;5.358;2023-06-14T12:49:32;4.60;;;1.20;;
44446;SDS011;30152;52.066;5.358;2023-06-14T12:51:58;4.15;;;1.33;;
44446;SDS011;30152;52.066;5.358;2023-06-14T12:54:24;11.07;;;1.35;;
44446;SDS011;30152;52.066;5.358;2023-06-14T12:56:51;4.95;;;2.00;;
44446;SDS011;30152;52.066;5.358;2023-06-14T12:59:18;4.05;;;1.15;;
44446;SDS011;30152;52.066;5.358;2023-06-14T13:01:44;3.55;;;1.17;;
44446;SDS011;30152;52.066;5.358;2023-06-14T13:04:10;3.28;;;1.02;;
44446;SDS011;30152;52.066;5.358;2023-06-14T13:06:36;4.75;;;1.00;;
44446;SDS011;30152;52.066;5.358;2023-06-14T13:09:02;4.25;;;1.20;;
44446;SDS011;30152;52.066;5.358;2023-06-14T13:11:28;4.57;;;1.40;;
44446;SDS011;30152;52.066;5.358;2023-06-14T13:13:55;6.97;;;1.33;;
44446;SDS011;30152;52.066;5.358;2023-06-14T13:16:21;4.75;;;1.20;;
44446;SDS011;30152;52.066;5.358;2023-06-14T13:18:47;5.72;;;1.10;;
44446;SDS011;30152;52.066;5.358;2023-06-14T13:21:13;6.50;;;1.50;;
44446;SDS011;30152;52.066;5.358;2023-06-14T13:23:39;5.43;;;1.50;;
44446;SDS011;30152;52.066;5.358;2023-06-14T13:26:05;4.32;;;1.20;;
44446;SDS011;30152;52.066;5.358;2023-06-14T13:28:31;6.00;;;1.50;;
44446;SDS011;30152;52.066;5.358;2023-06-14T13:30:57;7.32;;;1.40;;
44446;SDS011;30152;52.066;5.358;2023-06-14T13:33:23;3.05;;;1.05;;
44446;SDS011;30152;52.066;5.358;2023-06-14T13:35:49;4.93;;;1.38;;
44446;SDS011;30152;52.066;5.358;2023-06-14T13:38:17;8.30;;;1.80;;
44446;SDS011;30152;52.066;5.358;2023-06-14T13:40:43;4.65;;;1.15;;
44446;SDS011;30152;52.066;5.358;2023-06-14T13:43:09;4.00;;;1.23;;
44446;SDS011;30152;52.066;5.358;2023-06-14T13:45:36;5.90;;;1.20;;
44446;SDS011;30152;52.066;5.358;2023-06-14T13:48:02;6.60;;;1.27;;
44446;SDS011;30152;52.066;5.358;2023-06-14T13:50:29;5.95;;;1.95;;
44446;SDS011;30152;52.066;5.358;2023-06-14T13:52:55;3.40;;;1.23;;
44446;SDS011;30152;52.066;5.358;2023-06-14T13:55:22;4.93;;;1.27;;
44446;SDS011;30152;52.066;5.358;2023-06-14T13:57:48;3.88;;;1.08;;
44446;SDS011;30152;52.066;5.358;2023-06-14T14:00:14;5.03;;;1.40;;
44446;SDS011;30152;52.066;5.358;2023-06-14T14:02:42;5.55;;;1.25;;
44446;SDS011;30152;52.066;5.358;2023-06-14T14:05:08;6.55;;;1.65;;
44446;SDS011;30152;52.066;5.358;2023-06-14T14:07:34;4.55;;;1.33;;
44446;SDS011;30152;52.066;5.358;2023-06-14T14:10:02;5.25;;;1.50;;
44446;SDS011;30152;52.066;5.358;2023-06-14T14:12:28;6.07;;;1.27;;
44446;SDS011;30152;52.066;5.358;2023-06-14T14:14:54;6.68;;;1.35;;
44446;SDS011;30152;52.066;5.358;2023-06-14T14:17:22;5.57;;;1.40;;
44446;SDS011;30152;52.066;5.358;2023-06-14T14:19:48;3.13;;;1.10;;
44446;SDS011;30152;52.066;5.358;2023-06-14T14:22:14;5.00;;;1.50;;
44446;SDS011;30152;52.066;5.358;2023-06-14T14:24:40;4.00;;;1.38;;
44446;SDS011;30152;52.066;5.358;2023-06-14T14:27:06;5.68;;;0.98;;
44446;SDS011;30152;52.066;5.358;2023-06-14T14:29:32;5.95;;;1.40;;
44446;SDS011;30152;52.066;5.358;2023-06-14T14:31:58;4.30;;;1.05;;
44446;SDS011;30152;52.066;5.358;2023-06-14T14:34:24;6.18;;;1.10;;
44446;SDS011;30152;52.066;5.358;2023-06-14T14:36:50;6.68;;;1.10;;
44446;SDS011;30152;52.066;5.358;2023-06-14T14:39:16;4.07;;;1.15;;
44446;SDS011;30152;52.066;5.358;2023-06-14T14:41:42;4.70;;;1.10;;
44446;SDS011;30152;52.066;5.358;2023-06-14T14:44:08;11.10;;;1.33;;
44446;SDS011;30152;52.066;5.358;2023-06-14T14:46:35;5.28;;;1.17;;
44446;SDS011;30152;52.066;5.358;2023-06-14T14:49:01;4.38;;;1.23;;
44446;SDS011;30152;52.066;5.358;2023-06-14T14:51:27;6.05;;;0.90;;
44446;SDS011;30152;52.066;5.358;2023-06-14T14:53:53;3.30;;;1.33;;
44446;SDS011;30152;52.066;5.358;2023-06-14T14:56:19;5.20;;;1.00;;
44446;SDS011;30152;52.066;5.358;2023-06-14T14:58:45;4.13;;;0.90;;
44446;SDS011;30152;52.066;5.358;2023-06-14T15:01:11;5.30;;;0.98;;
44446;SDS011;30152;52.066;5.358;2023-06-14T15:03:39;5.75;;;1.05;;
44446;SDS011;30152;52.066;5.358;2023-06-14T15:06:04;5.07;;;0.95;;
44446;SDS011;30152;52.066;5.358;2023-06-14T15:08:30;3.42;;;0.82;;
44446;SDS011;30152;52.066;5.358;2023-06-14T15:10:56;4.65;;;0.95;;
44446;SDS011;30152;52.066;5.358;2023-06-14T15:13:22;2.88;;;0.98;;
44446;SDS011;30152;52.066;5.358;2023-06-14T15:15:48;4.35;;;0.80;;
44446;SDS011;30152;52.066;5.358;2023-06-14T15:18:14;3.05;;;0.93;;
44446;SDS011;30152;52.066;5.358;2023-06-14T15:20:41;4.15;;;0.80;;
44446;SDS011;30152;52.066;5.358;2023-06-14T15:23:08;3.25;;;0.90;;
44446;SDS011;30152;52.066;5.358;2023-06-14T15:25:34;3.53;;;0.85;;
44446;SDS011;30152;52.066;5.358;2023-06-14T15:28:00;3.80;;;0.68;;
44446;SDS011;30152;52.066;5.358;2023-06-14T15:30:27;3.72;;;0.80;;
44446;SDS011;30152;52.066;5.358;2023-06-14T15:32:52;4.13;;;0.85;;
44446;SDS011;30152;52.066;5.358;2023-06-14T15:35:19;3.40;;;0.90;;
44446;SDS011;30152;52.066;5.358;2023-06-14T15:37:46;5.45;;;0.90;;
44446;SDS011;30152;52.066;5.358;2023-06-14T15:40:13;3.92;;;0.98;;
44446;SDS011;30152;52.066;5.358;2023-06-14T15:42:39;3.15;;;1.00;;
44446;SDS011;30152;52.066;5.358;2023-06-14T15:45:06;2.28;;;0.80;;
44446;SDS011;30152;52.066;5.358;2023-06-14T15:47:33;5.20;;;1.38;;
44446;SDS011;30152;52.066;5.358;2023-06-14T15:49:59;7.18;;;1.20;;
44446;SDS011;30152;52.066;5.358;2023-06-14T15:52:25;3.35;;;1.10;;
44446;SDS011;30152;52.066;5.358;2023-06-14T15:54:51;2.78;;;0.82;;
44446;SDS011;30152;52.066;5.358;2023-06-14T15:57:17;4.68;;;1.00;;
44446;SDS011;30152;52.066;5.358;2023-06-14T15:59:44;3.15;;;0.80;;
44446;SDS011;30152;52.066;5.358;2023-06-14T16:02:10;5.35;;;0.98;;
44446;SDS011;30152;52.066;5.358;2023-06-14T16:04:36;3.00;;;0.93;;
44446;SDS011;30152;52.066;5.358;2023-06-14T16:07:02;7.05;;;0.80;;
44446;SDS011;30152;52.066;5.358;2023-06-14T16:09:28;3.88;;;1.00;;
44446;SDS011;30152;52.066;5.358;2023-06-14T16:11:54;3.75;;;1.05;;
44446;SDS011;30152;52.066;5.358;2023-06-14T16:14:21;4.03;;;0.93;;
44446;SDS011;30152;52.066;5.358;2023-06-14T16:16:47;6.88;;;1.10;;
44446;SDS011;30152;52.066;5.358;2023-06-14T16:19:13;4.55;;;0.88;;
44446;SDS011;30152;52.066;5.358;2023-06-14T16:21:39;6.72;;;1.10;;
44446;SDS011;30152;52.066;5.358;2023-06-14T16:24:06;2.40;;;0.77;;
44446;SDS011;30152;52.066;5.358;2023-06-14T16:26:33;3.95;;;0.93;;
44446;SDS011;30152;52.066;5.358;2023-06-14T16:28:59;4.13;;;1.13;;
44446;SDS011;30152;52.066;5.358;2023-06-14T16:31:25;2.65;;;1.00;;
44446;SDS011;30152;52.066;5.358;2023-06-14T16:33:51;3.55;;;1.20;;
44446;SDS011;30152;52.066;5.358;2023-06-14T16:36:20;4.95;;;1.20;;
44446;SDS011;30152;52.066;5.358;2023-06-14T16:38:46;6.88;;;1.70;;
44446;SDS011;30152;52.066;5.358;2023-06-14T16:41:13;3.50;;;1.00;;
44446;SDS011;30152;52.066;5.358;2023-06-14T16:43:38;3.63;;;1.20;;
44446;SDS011;30152;52.066;5.358;2023-06-14T16:46:04;5.38;;;1.20;;
44446;SDS011;30152;52.066;5.358;2023-06-14T16:48:30;6.43;;;1.23;;
44446;SDS011;30152;52.066;5.358;2023-06-14T16:50:56;4.25;;;0.88;;
44446;SDS011;30152;52.066;5.358;2023-06-14T16:53:22;4.55;;;1.20;;
44446;SDS011;30152;52.066;5.358;2023-06-14T16:55:48;5.22;;;3.00;;
44446;SDS011;30152;52.066;5.358;2023-06-14T16:58:14;5.43;;;1.23;;
44446;SDS011;30152;52.066;5.358;2023-06-14T17:00:41;7.32;;;1.30;;
44446;SDS011;30152;52.066;5.358;2023-06-14T17:03:07;3.83;;;1.15;;
44446;SDS011;30152;52.066;5.358;2023-06-14T17:05:33;4.85;;;1.15;;
44446;SDS011;30152;52.066;5.358;2023-06-14T17:07:59;7.93;;;1.40;;
44446;SDS011;30152;52.066;5.358;2023-06-14T17:10:25;5.85;;;2.22;;
44446;SDS011;30152;52.066;5.358;2023-06-14T17:12:52;5.47;;;1.65;;
44446;SDS011;30152;52.066;5.358;2023-06-14T17:15:18;3.20;;;1.15;;
44446;SDS011;30152;52.066;5.358;2023-06-14T17:17:44;5.03;;;1.23;;
44446;SDS011;30152;52.066;5.358;2023-06-14T17:20:10;4.82;;;1.25;;
44446;SDS011;30152;52.066;5.358;2023-06-14T17:22:37;7.22;;;1.60;;
44446;SDS011;30152;52.066;5.358;2023-06-14T17:25:03;4.45;;;1.02;;
44446;SDS011;30152;52.066;5.358;2023-06-14T17:27:29;4.07;;;1.10;;
44446;SDS011;30152;52.066;5.358;2023-06-14T17:29:55;5.32;;;1.23;;
44446;SDS011;30152;52.066;5.358;2023-06-14T17:32:21;6.32;;;1.27;;
44446;SDS011;30152;52.066;5.358;2023-06-14T17:34:47;4.70;;;1.23;;
44446;SDS011;30152;52.066;5.358;2023-06-14T17:37:13;4.18;;;1.00;;
44446;SDS011;30152;52.066;5.358;2023-06-14T17:39:39;6.13;;;1.33;;
44446;SDS011;30152;52.066;5.358;2023-06-14T17:42:06;5.82;;;1.20;;
44446;SDS011;30152;52.066;5.358;2023-06-14T17:44:32;6.25;;;1.23;;
44446;SDS011;30152;52.066;5.358;2023-06-14T17:46:58;3.40;;;1.00;;
44446;SDS011;30152;52.066;5.358;2023-06-14T17:49:24;3.28;;;1.23;;
44446;SDS011;30152;52.066;5.358;2023-06-14T17:51:51;4.18;;;1.35;;
44446;SDS011;30152;52.066;5.358;2023-06-14T17:54:17;3.78;;;1.42;;
44446;SDS011;30152;52.066;5.358;2023-06-14T17:56:43;4.32;;;1.10;;
44446;SDS011;30152;52.066;5.358;2023-06-14T17:59:09;4.70;;;1.10;;
44446;SDS011;30152;52.066;5.358;2023-06-14T18:01:35;4.18;;;1.13;;
44446;SDS011;30152;52.066;5.358;2023-06-14T18:04:01;5.80;;;1.40;;
44446;SDS011;30152;52.066;5.358;2023-06-14T18:06:27;3.70;;;1.20;;
44446;SDS011;30152;52.066;5.358;2023-06-14T18:08:55;6.07;;;1.23;;
44446;SDS011;30152;52.066;5.358;2023-06-14T18:11:21;11.18;;;2.28;;
44446;SDS011;30152;52.066;5.358;2023-06-14T18:13:47;2.90;;;1.02;;
44446;SDS011;30152;52.066;5.358;2023-06-14T18:16:13;5.15;;;1.30;;
44446;SDS011;30152;52.066;5.358;2023-06-14T18:18:44;3.97;;;1.13;;
44446;SDS011;30152;52.066;5.358;2023-06-14T18:21:11;8.93;;;1.45;;
44446;SDS011;30152;52.066;5.358;2023-06-14T18:23:37;2.97;;;1.10;;
44446;SDS011;30152;52.066;5.358;2023-06-14T18:26:03;4.25;;;1.05;;
44446;SDS011;30152;52.066;5.358;2023-06-14T18:28:29;6.10;;;1.17;;
44446;SDS011;30152;52.066;5.358;2023-06-14T18:30:55;4.45;;;1.40;;
44446;SDS011;30152;52.066;5.358;2023-06-14T18:33:21;4.65;;;1.40;;
44446;SDS011;30152;52.066;5.358;2023-06-14T18:35:47;4.15;;;0.82;;
44446;SDS011;30152;52.066;5.358;2023-06-14T18:38:13;7.78;;;1.27;;
44446;SDS011;30152;52.066;5.358;2023-06-14T18:40:39;6.15;;;1.15;;
44446;SDS011;30152;52.066;5.358;2023-06-14T18:43:05;5.68;;;1.17;;
44446;SDS011;30152;52.066;5.358;2023-06-14T18:45:31;5.55;;;1.17;;
44446;SDS011;30152;52.066;5.358;2023-06-14T18:47:57;6.25;;;1.15;;
44446;SDS011;30152;52.066;5.358;2023-06-14T18:50:23;5.88;;;1.23;;
44446;SDS011;30152;52.066;5.358;2023-06-14T18:52:50;4.38;;;1.13;;
44446;SDS011;30152;52.066;5.358;2023-06-14T18:55:17;7.63;;;1.20;;
44446;SDS011;30152;52.066;5.358;2023-06-14T18:57:43;3.75;;;1.23;;
44446;SDS011;30152;52.066;5.358;2023-06-14T19:00:09;6.28;;;1.08;;
44446;SDS011;30152;52.066;5.358;2023-06-14T19:02:35;8.40;;;1.50;;
44446;SDS011;30152;52.066;5.358;2023-06-14T19:05:03;6.03;;;1.23;;
44446;SDS011;30152;52.066;5.358;2023-06-14T19:07:30;5.20;;;1.20;;
44446;SDS011;30152;52.066;5.358;2023-06-14T19:09:56;4.78;;;1.25;;
44446;SDS011;30152;52.066;5.358;2023-06-14T19:12:22;5.93;;;1.17;;
44446;SDS011;30152;52.066;5.358;2023-06-14T19:14:47;5.70;;;1.55;;
44446;SDS011;30152;52.066;5.358;2023-06-14T19:17:13;5.85;;;1.63;;
44446;SDS011;30152;52.066;5.358;2023-06-14T19:19:39;4.90;;;1.52;;
44446;SDS011;30152;52.066;5.358;2023-06-14T19:22:06;4.70;;;1.70;;
44446;SDS011;30152;52.066;5.358;2023-06-14T19:24:32;5.43;;;1.48;;
44446;SDS011;30152;52.066;5.358;2023-06-14T19:26:57;5.75;;;1.08;;
44446;SDS011;30152;52.066;5.358;2023-06-14T19:29:23;3.08;;;1.20;;
44446;SDS011;30152;52.066;5.358;2023-06-14T19:31:50;4.30;;;1.30;;
44446;SDS011;30152;52.066;5.358;2023-06-14T19:34:18;5.35;;;1.33;;
44446;SDS011;30152;52.066;5.358;2023-06-14T19:36:44;5.53;;;1.40;;
44446;SDS011;30152;52.066;5.358;2023-06-14T19:39:10;3.88;;;1.40;;
44446;SDS011;30152;52.066;5.358;2023-06-14T19:41:36;5.03;;;1.27;;
44446;SDS011;30152;52.066;5.358;2023-06-14T19:44:02;3.97;;;1.30;;
44446;SDS011;30152;52.066;5.358;2023-06-14T19:46:28;3.97;;;1.40;;
44446;SDS011;30152;52.066;5.358;2023-06-14T19:48:54;7.38;;;1.50;;
44446;SDS011;30152;52.066;5.358;2023-06-14T19:51:19;3.95;;;1.50;;
44446;SDS011;30152;52.066;5.358;2023-06-14T19:53:45;4.72;;;1.52;;
44446;SDS011;30152;52.066;5.358;2023-06-14T19:56:11;3.88;;;1.40;;
44446;SDS011;30152;52.066;5.358;2023-06-14T19:58:37;5.18;;;1.38;;
44446;SDS011;30152;52.066;5.358;2023-06-14T20:01:04;5.13;;;1.55;;
44446;SDS011;30152;52.066;5.358;2023-06-14T20:03:32;8.18;;;1.30;;
44446;SDS011;30152;52.066;5.358;2023-06-14T20:05:58;6.78;;;1.45;;
44446;SDS011;30152;52.066;5.358;2023-06-14T20:08:24;6.28;;;1.45;;
44446;SDS011;30152;52.066;5.358;2023-06-14T20:10:56;5.00;;;1.40;;
44446;SDS011;30152;52.066;5.358;2023-06-14T20:13:22;9.88;;;1.58;;
44446;SDS011;30152;52.066;5.358;2023-06-14T20:15:49;7.00;;;1.83;;
44446;SDS011;30152;52.066;5.358;2023-06-14T20:18:15;4.07;;;1.27;;
44446;SDS011;30152;52.066;5.358;2023-06-14T20:20:42;5.55;;;1.65;;
44446;SDS011;30152;52.066;5.358;2023-06-14T20:23:08;6.93;;;1.77;;
44446;SDS011;30152;52.066;5.358;2023-06-14T20:25:34;4.47;;;1.60;;
44446;SDS011;30152;52.066;5.358;2023-06-14T20:28:00;5.32;;;1.50;;
44446;SDS011;30152;52.066;5.358;2023-06-14T20:30:27;3.70;;;1.45;;
44446;SDS011;30152;52.066;5.358;2023-06-14T20:32:53;4.45;;;1.50;;
44446;SDS011;30152;52.066;5.358;2023-06-14T20:35:19;6.97;;;1.52;;
44446;SDS011;30152;52.066;5.358;2023-06-14T20:37:45;8.52;;;1.80;;
44446;SDS011;30152;52.066;5.358;2023-06-14T20:40:21;5.95;;;1.83;;
44446;SDS011;30152;52.066;5.358;2023-06-14T20:42:48;6.38;;;1.60;;
44446;SDS011;30152;52.066;5.358;2023-06-14T20:45:16;5.30;;;1.80;;
44446;SDS011;30152;52.066;5.358;2023-06-14T20:47:42;7.63;;;2.00;;
44446;SDS011;30152;52.066;5.358;2023-06-14T20:50:08;6.90;;;1.92;;
44446;SDS011;30152;52.066;5.358;2023-06-14T20:52:39;6.82;;;2.78;;
44446;SDS011;30152;52.066;5.358;2023-06-14T20:55:05;5.28;;;1.90;;
44446;SDS011;30152;52.066;5.358;2023-06-14T20:57:31;9.65;;;2.78;;
44446;SDS011;30152;52.066;5.358;2023-06-14T20:59:58;5.43;;;1.40;;
44446;SDS011;30152;52.066;5.358;2023-06-14T21:02:24;5.55;;;1.80;;
44446;SDS011;30152;52.066;5.358;2023-06-14T21:04:49;6.70;;;2.50;;
44446;SDS011;30152;52.066;5.358;2023-06-14T21:07:15;5.50;;;1.60;;
44446;SDS011;30152;52.066;5.358;2023-06-14T21:09:41;9.13;;;1.70;;
44446;SDS011;30152;52.066;5.358;2023-06-14T21:12:07;5.93;;;1.45;;
44446;SDS011;30152;52.066;5.358;2023-06-14T21:14:34;4.13;;;1.40;;
44446;SDS011;30152;52.066;5.358;2023-06-14T21:17:00;4.40;;;1.42;;
44446;SDS011;30152;52.066;5.358;2023-06-14T21:19:26;5.13;;;1.70;;
44446;SDS011;30152;52.066;5.358;2023-06-14T21:21:52;4.93;;;1.90;;
44446;SDS011;30152;52.066;5.358;2023-06-14T21:24:19;7.68;;;1.67;;
44446;SDS011;30152;52.066;5.358;2023-06-14T21:26:47;5.68;;;1.75;;
44446;SDS011;30152;52.066;5.358;2023-06-14T21:29:13;5.40;;;1.88;;